createdAt,value
2022-12-18T00:00:09.538Z,20.85
2022-12-18T00:02:43.359Z,19.00
2022-12-18T00:05:11.662Z,18.08
2022-12-18T00:07:39.926Z,18.95
2022-12-18T00:10:08.595Z,18.33
2022-12-18T00:12:36.752Z,18.65
2022-12-18T00:15:05.686Z,18.58
2022-12-18T00:17:33.896Z,18.10
2022-12-18T00:20:02.191Z,18.40
2022-12-18T00:22:30.343Z,18.98
2022-12-18T00:24:58.508Z,18.27
2022-12-18T00:27:29.491Z,18.27
2022-12-18T00:29:57.697Z,15.93
2022-12-18T00:32:26.406Z,17.75
2022-12-18T00:34:54.613Z,16.83
2022-12-18T00:37:22.837Z,18.25
2022-12-18T00:39:52.901Z,16.85
2022-12-18T00:42:58.503Z,17.65
2022-12-18T00:45:29.338Z,16.70
2022-12-18T00:47:58.410Z,16.88
2022-12-18T00:50:27.641Z,17.63
2022-12-18T00:52:55.869Z,16.95
2022-12-18T00:55:24.260Z,17.35
2022-12-18T00:57:53.520Z,17.77
2022-12-18T01:00:24.930Z,18.40
2022-12-18T01:02:53.360Z,16.73
2022-12-18T01:05:21.630Z,16.33
2022-12-18T01:07:49.831Z,19.23
2022-12-18T01:10:18.068Z,16.27
2022-12-18T01:12:46.683Z,17.88
2022-12-18T01:15:16.573Z,16.70
2022-12-18T01:17:45.355Z,16.88
2022-12-18T01:20:14.381Z,20.73
2022-12-18T01:22:42.601Z,19.63
2022-12-18T01:25:11.276Z,21.77
2022-12-18T01:27:42.068Z,20.58
2022-12-18T01:30:11.089Z,21.20
2022-12-18T01:32:39.304Z,20.05
2022-12-18T01:35:08.289Z,23.10
2022-12-18T01:37:36.466Z,22.13
2022-12-18T01:40:05.174Z,20.55
2022-12-18T01:42:33.426Z,21.80
2022-12-18T01:45:13.331Z,20.33
2022-12-18T01:47:51.675Z,19.95
2022-12-18T01:50:28.555Z,19.20
2022-12-18T01:53:13.994Z,20.23
2022-12-18T01:55:57.370Z,20.05
2022-12-18T01:58:33.833Z,18.77
2022-12-18T02:01:02.429Z,16.98
2022-12-18T02:03:30.779Z,17.05
2022-12-18T02:06:25.020Z,18.55
2022-12-18T02:09:07.365Z,19.33
2022-12-18T02:11:35.539Z,17.60
2022-12-18T02:14:28.382Z,18.08
2022-12-18T02:17:17.657Z,17.80
2022-12-18T02:20:00.961Z,17.55
2022-12-18T02:22:38.502Z,18.38
2022-12-18T02:25:31.298Z,17.05
2022-12-18T02:28:05.094Z,16.00
2022-12-18T02:30:36.780Z,17.85
2022-12-18T02:33:11.424Z,16.52
2022-12-18T02:35:42.846Z,17.98
2022-12-18T02:38:12.279Z,16.73
2022-12-18T02:40:43.293Z,15.93
2022-12-18T02:43:16.796Z,17.77
2022-12-18T02:45:57.916Z,16.73
2022-12-18T02:48:36.077Z,17.45
2022-12-18T02:51:25.359Z,17.23
2022-12-18T02:54:11.866Z,16.95
2022-12-18T02:56:52.783Z,16.55
2022-12-18T02:59:48.699Z,17.45
2022-12-18T03:02:19.939Z,16.63
2022-12-18T03:04:59.122Z,17.75
2022-12-18T03:07:45.873Z,17.20
2022-12-18T03:10:23.012Z,17.38
2022-12-18T03:13:03.076Z,18.85
2022-12-18T03:15:44.529Z,17.27
2022-12-18T03:18:26.923Z,17.20
2022-12-18T03:20:59.932Z,19.35
2022-12-18T03:26:08.110Z,18.13
2022-12-18T03:28:47.205Z,19.35
2022-12-18T03:31:17.677Z,18.88
2022-12-18T03:33:59.830Z,20.50
2022-12-18T03:36:36.506Z,18.05
2022-12-18T03:39:05.145Z,18.50
2022-12-18T03:42:06.777Z,17.83
2022-12-18T03:44:57.755Z,17.50
2022-12-18T03:47:26.045Z,17.42
2022-12-18T03:50:15.804Z,17.75
2022-12-18T03:53:01.447Z,18.50
2022-12-18T03:55:34.665Z,18.48
2022-12-18T03:58:08.860Z,20.20
2022-12-18T04:00:57.250Z,20.15
2022-12-18T04:03:27.228Z,19.63
2022-12-18T04:05:57.836Z,19.98
2022-12-18T04:08:27.346Z,20.08
2022-12-18T04:11:04.072Z,15.98
2022-12-18T04:13:37.505Z,16.67
2022-12-18T04:16:10.569Z,16.63
2022-12-18T04:18:42.522Z,15.82
2022-12-18T04:21:11.921Z,14.85
2022-12-18T04:23:40.486Z,13.60
2022-12-18T04:26:12.273Z,13.93
2022-12-18T04:29:02.232Z,13.52
2022-12-18T04:31:30.823Z,12.55
2022-12-18T04:33:59.909Z,13.82
2022-12-18T04:36:28.492Z,14.40
2022-12-18T04:38:57.400Z,14.10
2022-12-18T04:41:25.825Z,12.75
2022-12-18T04:43:55.582Z,13.80
2022-12-18T04:46:23.895Z,14.73
2022-12-18T04:48:52.141Z,12.32
2022-12-18T04:51:26.155Z,13.27
2022-12-18T04:53:55.333Z,14.02
2022-12-18T04:56:23.592Z,14.07
2022-12-18T04:58:51.768Z,15.23
2022-12-18T05:01:20.337Z,13.88
2022-12-18T05:03:48.676Z,13.45
2022-12-18T05:06:16.940Z,14.63
2022-12-18T05:08:45.221Z,14.35
2022-12-18T05:11:16.757Z,14.07
2022-12-18T05:13:45.839Z,14.80
2022-12-18T05:16:15.195Z,15.90
2022-12-18T05:18:43.516Z,15.75
2022-12-18T05:21:11.684Z,15.18
2022-12-18T05:23:40.375Z,14.18
2022-12-18T05:26:09.875Z,15.38
2022-12-18T05:28:40.943Z,14.65
2022-12-18T05:31:09.383Z,13.48
2022-12-18T05:33:38.743Z,13.40
2022-12-18T05:36:09.531Z,12.88
2022-12-18T05:38:39.219Z,14.60
2022-12-18T05:41:08.770Z,12.88
2022-12-18T05:43:39.319Z,14.20
2022-12-18T05:46:10.165Z,14.50
2022-12-18T05:48:38.391Z,13.82
2022-12-18T05:51:17.645Z,14.77
2022-12-18T05:53:46.141Z,13.82
2022-12-18T05:56:19.525Z,13.80
2022-12-18T05:58:52.437Z,13.57
2022-12-18T06:01:26.122Z,14.48
2022-12-18T06:03:54.756Z,13.32
2022-12-18T06:06:26.329Z,13.60
2022-12-18T06:08:55.665Z,14.55
2022-12-18T06:11:26.378Z,14.63
2022-12-18T06:13:59.306Z,13.27
2022-12-18T06:16:29.492Z,14.20
2022-12-18T06:19:02.369Z,12.80
2022-12-18T06:21:31.826Z,12.80
2022-12-18T06:24:00.934Z,13.60
2022-12-18T06:26:29.191Z,13.27
2022-12-18T06:28:57.428Z,13.63
2022-12-18T06:31:26.998Z,14.02
2022-12-18T06:33:55.250Z,12.98
2022-12-18T06:36:23.646Z,12.32
2022-12-18T06:38:51.993Z,13.43
2022-12-18T06:41:22.297Z,12.52
2022-12-18T06:43:51.268Z,12.70
2022-12-18T06:46:20.658Z,12.52
2022-12-18T06:48:50.850Z,13.77
2022-12-18T06:51:25.146Z,13.13
2022-12-18T06:53:53.414Z,12.52
2022-12-18T06:56:21.594Z,12.70
2022-12-18T06:58:49.778Z,12.70
2022-12-18T07:01:21.095Z,14.05
2022-12-18T07:03:53.082Z,11.55
2022-12-18T07:06:22.793Z,13.75
2022-12-18T07:08:52.294Z,12.85
2022-12-18T07:11:23.861Z,12.20
2022-12-18T07:13:53.256Z,12.02
2022-12-18T07:16:25.682Z,12.23
2022-12-18T07:18:56.511Z,13.35
2022-12-18T07:21:25.854Z,12.13
2022-12-18T07:23:54.406Z,12.30
2022-12-18T07:26:23.623Z,11.70
2022-12-18T07:28:55.507Z,12.00
2022-12-18T07:31:24.140Z,12.73
2022-12-18T07:33:53.262Z,12.63
2022-12-18T07:36:21.881Z,13.52
2022-12-18T07:38:52.556Z,12.57
2022-12-18T07:41:21.160Z,12.73
2022-12-18T07:43:49.950Z,12.45
2022-12-18T07:46:18.912Z,12.73
2022-12-18T07:48:49.797Z,12.65
2022-12-18T07:51:19.491Z,13.32
2022-12-18T07:53:52.254Z,12.40
2022-12-18T07:56:30.276Z,14.20
2022-12-18T07:59:00.118Z,13.48
2022-12-18T08:01:29.028Z,12.45
2022-12-18T08:03:58.645Z,13.63
2022-12-18T08:06:28.099Z,13.85
2022-12-18T08:08:57.438Z,12.02
2022-12-18T08:11:27.957Z,12.90
2022-12-18T08:13:56.889Z,12.38
2022-12-18T08:16:28.439Z,11.57
2022-12-18T08:18:57.188Z,12.20
2022-12-18T08:21:28.367Z,11.57
2022-12-18T08:23:58.916Z,11.48
2022-12-18T08:26:29.877Z,12.98
2022-12-18T08:29:00.297Z,11.98
2022-12-18T08:31:31.541Z,11.20
2022-12-18T08:33:59.849Z,11.30
2022-12-18T08:36:28.277Z,12.52
2022-12-18T08:39:00.406Z,11.55
2022-12-18T08:41:28.782Z,12.38
2022-12-18T08:44:17.867Z,11.63
2022-12-18T08:46:46.071Z,10.63
2022-12-18T08:49:15.564Z,10.57
2022-12-18T08:51:44.511Z,11.68
2022-12-18T08:54:14.687Z,11.25
2022-12-18T08:56:42.836Z,11.18
2022-12-18T08:59:15.949Z,11.13
2022-12-18T09:01:48.223Z,11.85
2022-12-18T09:04:16.827Z,11.35
2022-12-18T09:06:45.196Z,12.70
2022-12-18T09:09:14.308Z,10.95
2022-12-18T09:11:42.519Z,11.07
2022-12-18T09:14:11.302Z,12.48
2022-12-18T09:16:39.538Z,11.20
2022-12-18T09:19:07.794Z,11.05
2022-12-18T09:21:40.252Z,11.40
2022-12-18T09:24:14.396Z,11.93
2022-12-18T09:26:43.501Z,11.27
2022-12-18T09:29:16.807Z,11.23
2022-12-18T09:31:47.744Z,11.93
2022-12-18T09:34:17.015Z,12.82
2022-12-18T09:36:45.346Z,11.82
2022-12-18T09:39:13.538Z,12.63
2022-12-18T09:42:11.032Z,11.68
2022-12-18T09:44:47.488Z,12.30
2022-12-18T09:47:30.811Z,11.68
2022-12-18T09:50:03.060Z,12.18
2022-12-18T09:52:38.672Z,12.80
2022-12-18T09:55:36.662Z,13.15
2022-12-18T09:58:11.357Z,13.93
2022-12-18T10:00:39.729Z,14.23
2022-12-18T10:03:15.970Z,15.27
2022-12-18T10:05:54.868Z,13.57
2022-12-18T10:08:52.524Z,12.82
2022-12-18T10:11:29.210Z,13.38
2022-12-18T10:14:18.998Z,13.60
2022-12-18T10:17:27.475Z,12.57
2022-12-18T10:20:51.229Z,12.30
2022-12-18T10:23:22.033Z,12.82
2022-12-18T10:26:16.476Z,12.85
2022-12-18T10:28:45.948Z,13.07
2022-12-18T10:31:20.024Z,13.30
2022-12-18T10:33:48.926Z,13.20
2022-12-18T10:36:17.393Z,13.02
2022-12-18T10:38:45.637Z,13.73
2022-12-18T10:41:24.210Z,12.77
2022-12-18T10:44:11.978Z,12.18
2022-12-18T10:46:40.686Z,11.07
2022-12-18T10:49:22.404Z,12.48
2022-12-18T10:51:52.170Z,11.65
2022-12-18T10:54:24.978Z,12.55
2022-12-18T10:57:13.146Z,12.60
2022-12-18T10:59:56.051Z,12.45
2022-12-18T11:02:36.929Z,12.77
2022-12-18T11:05:30.309Z,12.63
2022-12-18T11:08:00.230Z,13.68
2022-12-18T11:10:33.916Z,12.60
2022-12-18T11:13:32.911Z,13.52
2022-12-18T11:16:01.468Z,13.40
2022-12-18T11:18:36.334Z,13.68
2022-12-18T11:21:12.889Z,13.77
2022-12-18T11:23:54.886Z,12.57
2022-12-18T11:26:36.873Z,13.38
2022-12-18T11:29:18.142Z,14.00
2022-12-18T11:31:47.446Z,14.18
2022-12-18T11:34:32.711Z,13.00
2022-12-18T11:37:04.540Z,14.05
2022-12-18T11:40:03.073Z,14.02
2022-12-18T11:42:42.534Z,13.15
2022-12-18T11:45:14.088Z,15.45
2022-12-18T11:48:12.758Z,14.77
2022-12-18T11:50:54.304Z,13.95
2022-12-18T11:53:23.067Z,14.95
2022-12-18T11:56:12.953Z,14.35
2022-12-18T11:58:44.148Z,15.38
2022-12-18T12:01:43.914Z,15.27
2022-12-18T12:04:50.140Z,15.18
2022-12-18T12:07:42.873Z,14.27
2022-12-18T12:10:30.049Z,14.68
2022-12-18T12:13:19.869Z,14.35
2022-12-18T12:15:48.076Z,13.38
2022-12-18T12:18:28.592Z,14.52
2022-12-18T12:21:14.630Z,15.48
2022-12-18T12:23:54.570Z,15.40
2022-12-18T12:27:00.972Z,14.50
2022-12-18T12:29:53.328Z,14.40
2022-12-18T12:32:34.028Z,15.27
2022-12-18T12:35:15.628Z,13.80
2022-12-18T12:38:02.470Z,13.43
2022-12-18T12:40:56.690Z,13.45
2022-12-18T12:43:49.619Z,12.13
2022-12-18T12:46:22.871Z,10.90
2022-12-18T12:48:58.612Z,12.50
2022-12-18T12:51:33.064Z,11.25
2022-12-18T12:54:03.885Z,11.27
2022-12-18T12:57:06.129Z,11.00
2022-12-18T13:00:05.495Z,11.57
2022-12-18T13:02:40.371Z,11.30
2022-12-18T13:05:21.293Z,11.32
2022-12-18T13:08:03.475Z,11.15
2022-12-18T13:10:36.404Z,10.60
2022-12-18T13:13:17.144Z,10.83
2022-12-18T13:16:08.588Z,10.27
2022-12-18T13:18:37.063Z,10.38
2022-12-18T13:21:33.764Z,9.77
2022-12-18T13:24:25.545Z,10.70
2022-12-18T13:26:54.590Z,10.25
2022-12-18T13:29:43.582Z,10.35
2022-12-18T13:32:28.332Z,10.48
2022-12-18T13:35:18.868Z,11.25
2022-12-18T13:37:55.789Z,10.63
2022-12-18T13:40:49.260Z,10.57
2022-12-18T13:43:25.411Z,10.23
2022-12-18T13:46:02.205Z,11.30
2022-12-18T13:48:34.261Z,11.02
2022-12-18T13:51:07.651Z,9.95
2022-12-18T13:53:56.557Z,10.10
2022-12-18T13:56:31.077Z,9.40
2022-12-18T13:59:19.989Z,9.52
2022-12-18T14:02:14.840Z,8.95
2022-12-18T14:04:47.715Z,9.75
2022-12-18T14:07:17.084Z,9.60
2022-12-18T14:10:12.146Z,10.85
2022-12-18T14:13:03.127Z,10.05
2022-12-18T14:15:35.007Z,9.68
2022-12-18T14:18:14.481Z,9.73
2022-12-18T14:20:49.258Z,9.15
2022-12-18T14:23:50.047Z,8.88
2022-12-18T14:26:34.179Z,8.57
2022-12-18T14:29:29.559Z,9.32
2022-12-18T14:32:18.941Z,10.25
2022-12-18T14:34:55.253Z,9.20
2022-12-18T14:37:26.000Z,10.52
2022-12-18T14:40:11.542Z,10.52
2022-12-18T14:42:40.102Z,11.40
2022-12-18T14:45:41.040Z,10.55
2022-12-18T14:48:23.417Z,11.38
2022-12-18T14:51:01.874Z,9.77
2022-12-18T14:53:37.979Z,10.77
2022-12-18T14:56:19.509Z,11.10
2022-12-18T14:58:54.023Z,11.55
2022-12-18T15:01:45.593Z,12.73
2022-12-18T15:04:36.210Z,12.90
2022-12-18T15:07:18.193Z,12.02
2022-12-18T15:10:08.700Z,12.35
2022-12-18T15:12:51.729Z,12.07
2022-12-18T15:15:35.258Z,13.43
2022-12-18T15:20:58.485Z,12.32
2022-12-18T15:23:32.793Z,11.85
2022-12-18T15:26:11.439Z,12.60
2022-12-18T15:28:47.715Z,12.70
2022-12-18T15:31:16.195Z,13.43
2022-12-18T15:34:00.573Z,14.85
2022-12-18T15:36:28.786Z,14.77
2022-12-18T15:39:05.255Z,15.65
2022-12-18T15:41:36.950Z,16.45
2022-12-18T15:44:24.804Z,14.63
2022-12-18T15:46:55.007Z,13.52
2022-12-18T15:49:23.421Z,14.93
2022-12-18T15:51:58.300Z,14.88
2022-12-18T15:54:45.138Z,14.00
2022-12-18T15:57:25.734Z,14.60
2022-12-18T15:59:57.496Z,14.65
2022-12-18T16:02:26.636Z,14.95
2022-12-18T16:04:55.230Z,14.73
2022-12-18T16:07:25.468Z,15.02
2022-12-18T16:09:55.846Z,15.23
2022-12-18T16:12:26.656Z,15.85
2022-12-18T16:14:54.912Z,14.15
2022-12-18T16:17:23.105Z,14.77
2022-12-18T16:19:51.914Z,15.27
2022-12-18T16:22:28.962Z,15.43
2022-12-18T16:24:58.279Z,15.93
2022-12-18T16:27:29.228Z,14.05
2022-12-18T16:29:57.454Z,15.98
2022-12-18T16:32:25.616Z,14.65
2022-12-18T16:34:53.842Z,14.43
2022-12-18T16:37:22.074Z,14.77
2022-12-18T16:39:50.473Z,15.38
2022-12-18T16:42:21.089Z,15.85
2022-12-18T16:44:50.582Z,16.42
2022-12-18T16:47:19.662Z,16.15
2022-12-18T16:49:51.732Z,17.35
2022-12-18T16:52:20.840Z,16.38
2022-12-18T16:54:49.149Z,15.88
2022-12-18T16:57:19.728Z,17.55
2022-12-18T16:59:50.001Z,17.35
2022-12-18T17:02:24.983Z,17.35
2022-12-18T17:04:59.646Z,17.08
2022-12-18T17:07:28.518Z,17.75
2022-12-18T17:09:57.252Z,17.35
2022-12-18T17:12:26.817Z,17.98
2022-12-18T17:14:54.992Z,18.83
2022-12-18T17:17:23.930Z,19.20
2022-12-18T17:19:53.175Z,18.95
2022-12-18T17:22:23.253Z,17.45
2022-12-18T17:24:51.633Z,18.85
2022-12-18T17:27:19.895Z,18.40
2022-12-18T17:29:48.988Z,19.23
2022-12-18T17:32:18.295Z,17.85
2022-12-18T17:34:48.872Z,17.33
2022-12-18T17:37:17.145Z,18.05
2022-12-18T17:39:45.388Z,18.65
2022-12-18T17:42:15.492Z,19.70
2022-12-18T17:44:45.090Z,20.33
2022-12-18T17:47:14.506Z,20.83
2022-12-18T17:49:42.731Z,18.88
2022-12-18T17:52:11.372Z,18.17
2022-12-18T17:54:41.952Z,19.98
2022-12-18T17:57:10.666Z,20.05
2022-12-18T17:59:38.877Z,20.48
2022-12-18T18:02:07.450Z,19.83
2022-12-18T18:04:36.685Z,20.88
2022-12-18T18:07:05.008Z,19.73
2022-12-18T18:09:33.334Z,20.33
2022-12-18T18:12:20.136Z,19.70
2022-12-18T18:14:48.492Z,20.20
2022-12-18T18:17:16.700Z,20.52
2022-12-18T18:19:48.010Z,21.25
2022-12-18T18:24:47.050Z,20.65
2022-12-18T18:27:15.447Z,20.20
2022-12-18T18:29:43.644Z,20.20
2022-12-18T18:32:11.900Z,21.85
2022-12-18T18:34:40.088Z,21.38
2022-12-18T18:37:09.352Z,20.80
2022-12-18T18:39:37.570Z,21.10
2022-12-18T18:42:05.947Z,20.55
2022-12-18T18:44:35.219Z,20.60
2022-12-18T18:47:03.631Z,21.15
2022-12-18T18:49:36.593Z,20.38
2022-12-18T18:52:05.260Z,22.55
2022-12-18T18:54:36.059Z,20.75
2022-12-18T18:57:26.263Z,19.70
2022-12-18T18:59:55.402Z,21.27
2022-12-18T19:02:23.719Z,22.52
2022-12-18T19:04:53.897Z,22.63
2022-12-18T19:07:30.371Z,21.65
2022-12-18T19:10:05.233Z,26.63
2022-12-18T19:12:53.703Z,22.75
2022-12-18T19:15:23.145Z,24.80
2022-12-18T19:17:51.399Z,24.00
2022-12-18T19:20:19.734Z,22.25
2022-12-18T19:22:55.787Z,24.40
2022-12-18T19:25:40.663Z,22.77
2022-12-18T19:28:21.545Z,24.58
2022-12-18T19:30:59.103Z,24.17
2022-12-18T19:33:44.856Z,23.20
2022-12-18T19:36:28.081Z,23.55
2022-12-18T19:38:59.379Z,24.48
2022-12-18T19:41:31.158Z,23.40
2022-12-18T19:44:00.156Z,22.15
2022-12-18T19:46:34.041Z,19.77
2022-12-18T19:49:02.381Z,18.88
2022-12-18T19:51:32.313Z,19.77
2022-12-18T19:54:02.151Z,20.45
2022-12-18T19:56:35.447Z,20.35
2022-12-18T20:01:36.443Z,20.67
2022-12-18T20:04:04.957Z,21.27
2022-12-18T20:06:36.277Z,20.38
2022-12-18T20:09:06.673Z,20.65
2022-12-18T20:11:38.849Z,20.45
2022-12-18T20:14:14.545Z,19.25
2022-12-18T20:16:52.380Z,20.33
2022-12-18T20:19:21.697Z,20.35
2022-12-18T20:21:50.341Z,20.90
2022-12-18T20:24:18.597Z,20.08
2022-12-18T20:26:46.750Z,20.85
2022-12-18T20:29:15.031Z,20.38
2022-12-18T20:31:43.461Z,19.77
2022-12-18T20:34:12.115Z,19.48
2022-12-18T20:36:41.168Z,22.20
2022-12-18T20:39:11.044Z,22.83
2022-12-18T20:41:41.665Z,22.42
2022-12-18T20:44:22.547Z,23.48
2022-12-18T20:46:58.161Z,24.80
2022-12-18T20:49:27.323Z,22.38
2022-12-18T20:51:57.592Z,24.00
2022-12-18T20:54:27.593Z,22.58
2022-12-18T20:56:56.867Z,21.70
2022-12-18T20:59:26.355Z,23.48
2022-12-18T21:01:55.035Z,21.60
2022-12-18T21:04:23.874Z,22.58
2022-12-18T21:07:00.726Z,22.42
2022-12-18T21:09:37.358Z,22.55
2022-12-18T21:12:48.254Z,23.27
2022-12-18T21:15:28.525Z,22.60
2022-12-18T21:17:57.223Z,23.55
2022-12-18T21:20:25.754Z,25.40
2022-12-18T21:22:54.064Z,25.42
2022-12-18T21:25:25.642Z,24.92
2022-12-18T21:27:57.068Z,26.17
2022-12-18T21:30:25.565Z,24.75
2022-12-18T21:32:53.700Z,26.10
2022-12-18T21:35:22.362Z,25.48
2022-12-18T21:37:52.670Z,25.83
2022-12-18T21:40:20.882Z,24.98
2022-12-18T21:43:07.701Z,26.25
2022-12-18T21:45:36.000Z,24.92
2022-12-18T21:48:04.281Z,24.83
2022-12-18T21:50:32.430Z,25.55
2022-12-18T21:53:00.680Z,25.33
2022-12-18T21:55:28.858Z,23.83
2022-12-18T21:57:57.473Z,22.95
2022-12-18T22:00:25.714Z,23.10
2022-12-18T22:03:17.034Z,20.90
2022-12-18T22:05:42.120Z,21.38
2022-12-18T22:08:10.754Z,18.13
2022-12-18T22:10:39.574Z,18.20
2022-12-18T22:13:08.350Z,19.45
2022-12-18T22:15:36.603Z,20.58
2022-12-18T22:18:05.043Z,18.10
2022-12-18T22:20:33.303Z,18.63
2022-12-18T22:23:05.648Z,17.75
2022-12-18T22:28:24.133Z,18.00
2022-12-18T22:30:55.140Z,20.27
2022-12-18T22:33:28.393Z,18.83
2022-12-18T22:35:56.708Z,19.20
2022-12-18T22:38:25.030Z,21.20
2022-12-18T22:40:54.434Z,23.35
2022-12-18T22:43:22.684Z,21.52
2022-12-18T22:45:50.957Z,19.90
2022-12-18T22:48:19.287Z,21.00
2022-12-18T22:50:47.428Z,20.70
2022-12-18T22:53:17.417Z,23.58
2022-12-18T22:55:45.589Z,22.25
2022-12-18T22:58:13.897Z,20.27
2022-12-18T23:00:43.996Z,19.83
2022-12-18T23:03:12.286Z,21.60
2022-12-18T23:05:40.540Z,20.77
2022-12-18T23:08:09.228Z,20.13
2022-12-18T23:10:40.666Z,20.17
2022-12-18T23:13:08.967Z,20.38
2022-12-18T23:15:42.987Z,20.00
2022-12-18T23:18:11.651Z,20.35
2022-12-18T23:20:40.005Z,21.13
2022-12-18T23:23:08.328Z,19.55
2022-12-18T23:25:36.791Z,20.77
2022-12-18T23:28:05.272Z,19.27
2022-12-18T23:30:33.703Z,18.65
2022-12-18T23:33:01.921Z,19.95
2022-12-18T23:35:30.623Z,20.55
2022-12-18T23:37:59.773Z,20.13
2022-12-18T23:40:29.886Z,20.30
2022-12-18T23:43:00.358Z,19.13
2022-12-18T23:45:28.871Z,19.27
2022-12-18T23:47:57.142Z,18.77
2022-12-18T23:50:28.760Z,19.27
2022-12-18T23:52:59.431Z,19.05
2022-12-18T23:55:38.574Z,20.67
2022-12-18T23:58:07.834Z,20.10
